sensor_id;sensor_type;location;lat;lon;timestamp;P1;durP1;ratioP1;P2;durP2;ratioP2
75061;SDS011;63641;46.526;24.612;2023-04-03T00:00:52;6.45;;;5.28;;
75061;SDS011;63641;46.526;24.612;2023-04-03T00:03:19;4.60;;;3.67;;
75061;SDS011;63641;46.526;24.612;2023-04-03T00:05:46;6.50;;;4.00;;
75061;SDS011;63641;46.526;24.612;2023-04-03T00:08:13;4.70;;;3.97;;
75061;SDS011;63641;46.526;24.612;2023-04-03T00:10:40;5.65;;;4.53;;
75061;SDS011;63641;46.526;24.612;2023-04-03T00:13:08;7.75;;;4.88;;
75061;SDS011;63641;46.526;24.612;2023-04-03T00:15:35;5.80;;;4.88;;
75061;SDS011;63641;46.526;24.612;2023-04-03T00:18:02;5.28;;;4.72;;
75061;SDS011;63641;46.526;24.612;2023-04-03T00:20:29;6.38;;;4.82;;
75061;SDS011;63641;46.526;24.612;2023-04-03T00:22:56;5.63;;;5.13;;
75061;SDS011;63641;46.526;24.612;2023-04-03T00:25:23;4.75;;;4.30;;
75061;SDS011;63641;46.526;24.612;2023-04-03T00:27:50;4.82;;;4.32;;
75061;SDS011;63641;46.526;24.612;2023-04-03T00:30:18;4.68;;;4.07;;
75061;SDS011;63641;46.526;24.612;2023-04-03T00:32:49;4.93;;;4.30;;
75061;SDS011;63641;46.526;24.612;2023-04-03T00:35:18;5.25;;;4.28;;
75061;SDS011;63641;46.526;24.612;2023-04-03T00:37:46;6.03;;;4.30;;
75061;SDS011;63641;46.526;24.612;2023-04-03T00:40:14;4.90;;;4.40;;
75061;SDS011;63641;46.526;24.612;2023-04-03T00:42:43;4.88;;;3.63;;
75061;SDS011;63641;46.526;24.612;2023-04-03T00:47:38;5.95;;;4.38;;
75061;SDS011;63641;46.526;24.612;2023-04-03T00:50:07;3.70;;;3.28;;
75061;SDS011;63641;46.526;24.612;2023-04-03T00:52:34;3.97;;;3.10;;
75061;SDS011;63641;46.526;24.612;2023-04-03T00:55:06;3.50;;;3.20;;
75061;SDS011;63641;46.526;24.612;2023-04-03T00:57:35;3.80;;;3.40;;
75061;SDS011;63641;46.526;24.612;2023-04-03T01:00:06;4.68;;;3.53;;
75061;SDS011;63641;46.526;24.612;2023-04-03T01:02:36;3.35;;;3.05;;
75061;SDS011;63641;46.526;24.612;2023-04-03T01:05:03;3.67;;;3.30;;
75061;SDS011;63641;46.526;24.612;2023-04-03T01:07:31;3.20;;;2.90;;
75061;SDS011;63641;46.526;24.612;2023-04-03T01:10:01;4.45;;;4.00;;
75061;SDS011;63641;46.526;24.612;2023-04-03T01:12:37;10.32;;;7.07;;
75061;SDS011;63641;46.526;24.612;2023-04-03T01:15:13;11.65;;;7.97;;
75061;SDS011;63641;46.526;24.612;2023-04-03T01:17:42;4.97;;;4.10;;
75061;SDS011;63641;46.526;24.612;2023-04-03T01:22:44;4.38;;;3.97;;
75061;SDS011;63641;46.526;24.612;2023-04-03T01:25:22;4.10;;;3.70;;
75061;SDS011;63641;46.526;24.612;2023-04-03T01:27:49;9.55;;;5.60;;
75061;SDS011;63641;46.526;24.612;2023-04-03T01:30:17;5.80;;;4.53;;
75061;SDS011;63641;46.526;24.612;2023-04-03T01:32:45;6.90;;;5.30;;
75061;SDS011;63641;46.526;24.612;2023-04-03T01:35:12;6.05;;;5.07;;
75061;SDS011;63641;46.526;24.612;2023-04-03T01:37:39;5.03;;;3.65;;
75061;SDS011;63641;46.526;24.612;2023-04-03T01:40:06;4.55;;;4.05;;
75061;SDS011;63641;46.526;24.612;2023-04-03T01:42:33;6.45;;;5.20;;
75061;SDS011;63641;46.526;24.612;2023-04-03T01:45:00;6.28;;;5.60;;
75061;SDS011;63641;46.526;24.612;2023-04-03T01:47:27;6.22;;;5.63;;
75061;SDS011;63641;46.526;24.612;2023-04-03T01:49:54;9.35;;;6.22;;
75061;SDS011;63641;46.526;24.612;2023-04-03T01:52:20;7.10;;;5.80;;
75061;SDS011;63641;46.526;24.612;2023-04-03T01:54:47;7.78;;;5.68;;
75061;SDS011;63641;46.526;24.612;2023-04-03T01:57:14;6.28;;;5.22;;
75061;SDS011;63641;46.526;24.612;2023-04-03T01:59:41;6.70;;;5.32;;
75061;SDS011;63641;46.526;24.612;2023-04-03T02:02:08;5.75;;;4.57;;
75061;SDS011;63641;46.526;24.612;2023-04-03T02:04:34;6.07;;;5.43;;
75061;SDS011;63641;46.526;24.612;2023-04-03T02:07:01;7.45;;;5.88;;
75061;SDS011;63641;46.526;24.612;2023-04-03T02:09:28;6.53;;;5.10;;
75061;SDS011;63641;46.526;24.612;2023-04-03T02:11:55;7.30;;;5.60;;
75061;SDS011;63641;46.526;24.612;2023-04-03T02:14:21;6.50;;;4.70;;
75061;SDS011;63641;46.526;24.612;2023-04-03T02:16:49;6.72;;;6.00;;
75061;SDS011;63641;46.526;24.612;2023-04-03T02:19:16;6.65;;;5.22;;
75061;SDS011;63641;46.526;24.612;2023-04-03T02:21:43;6.57;;;5.15;;
75061;SDS011;63641;46.526;24.612;2023-04-03T02:24:10;7.43;;;5.38;;
75061;SDS011;63641;46.526;24.612;2023-04-03T02:26:36;7.55;;;6.35;;
75061;SDS011;63641;46.526;24.612;2023-04-03T02:29:03;7.07;;;6.38;;
75061;SDS011;63641;46.526;24.612;2023-04-03T02:31:30;9.20;;;7.20;;
75061;SDS011;63641;46.526;24.612;2023-04-03T02:33:57;7.18;;;6.22;;
75061;SDS011;63641;46.526;24.612;2023-04-03T02:36:23;7.82;;;6.45;;
75061;SDS011;63641;46.526;24.612;2023-04-03T02:38:50;7.68;;;6.28;;
75061;SDS011;63641;46.526;24.612;2023-04-03T02:41:17;6.63;;;5.97;;
75061;SDS011;63641;46.526;24.612;2023-04-03T02:43:44;7.53;;;6.00;;
75061;SDS011;63641;46.526;24.612;2023-04-03T02:46:11;9.25;;;6.53;;
75061;SDS011;63641;46.526;24.612;2023-04-03T02:48:37;7.63;;;6.82;;
75061;SDS011;63641;46.526;24.612;2023-04-03T02:51:04;7.63;;;6.53;;
75061;SDS011;63641;46.526;24.612;2023-04-03T02:53:31;8.43;;;7.13;;
75061;SDS011;63641;46.526;24.612;2023-04-03T02:55:58;9.45;;;6.80;;
75061;SDS011;63641;46.526;24.612;2023-04-03T02:58:25;8.70;;;7.13;;
75061;SDS011;63641;46.526;24.612;2023-04-03T03:00:53;8.73;;;7.68;;
75061;SDS011;63641;46.526;24.612;2023-04-03T03:03:20;13.07;;;9.20;;
75061;SDS011;63641;46.526;24.612;2023-04-03T03:05:47;13.63;;;10.23;;
75061;SDS011;63641;46.526;24.612;2023-04-03T03:08:14;13.68;;;10.18;;
75061;SDS011;63641;46.526;24.612;2023-04-03T03:10:41;12.30;;;10.00;;
75061;SDS011;63641;46.526;24.612;2023-04-03T03:13:07;17.25;;;11.35;;
75061;SDS011;63641;46.526;24.612;2023-04-03T03:15:34;16.33;;;10.20;;
75061;SDS011;63641;46.526;24.612;2023-04-03T03:18:01;15.98;;;10.18;;
75061;SDS011;63641;46.526;24.612;2023-04-03T03:20:28;16.00;;;10.95;;
75061;SDS011;63641;46.526;24.612;2023-04-03T03:22:55;15.40;;;10.93;;
75061;SDS011;63641;46.526;24.612;2023-04-03T03:25:22;14.52;;;11.02;;
75061;SDS011;63641;46.526;24.612;2023-04-03T03:27:50;17.73;;;11.48;;
75061;SDS011;63641;46.526;24.612;2023-04-03T03:30:17;17.55;;;12.13;;
75061;SDS011;63641;46.526;24.612;2023-04-03T03:32:44;16.38;;;12.10;;
75061;SDS011;63641;46.526;24.612;2023-04-03T03:35:11;20.70;;;11.55;;
75061;SDS011;63641;46.526;24.612;2023-04-03T03:37:38;17.23;;;12.60;;
75061;SDS011;63641;46.526;24.612;2023-04-03T03:40:05;20.17;;;12.45;;
75061;SDS011;63641;46.526;24.612;2023-04-03T03:42:32;17.63;;;12.45;;
75061;SDS011;63641;46.526;24.612;2023-04-03T03:44:59;18.52;;;13.52;;
75061;SDS011;63641;46.526;24.612;2023-04-03T03:47:26;18.35;;;12.60;;
75061;SDS011;63641;46.526;24.612;2023-04-03T03:49:52;18.40;;;12.05;;
75061;SDS011;63641;46.526;24.612;2023-04-03T03:52:19;19.90;;;13.18;;
75061;SDS011;63641;46.526;24.612;2023-04-03T03:54:46;17.00;;;12.15;;
75061;SDS011;63641;46.526;24.612;2023-04-03T03:57:13;18.17;;;11.90;;
75061;SDS011;63641;46.526;24.612;2023-04-03T03:59:40;16.05;;;12.00;;
75061;SDS011;63641;46.526;24.612;2023-04-03T04:02:08;19.50;;;12.82;;
75061;SDS011;63641;46.526;24.612;2023-04-03T04:04:34;19.38;;;12.90;;
75061;SDS011;63641;46.526;24.612;2023-04-03T04:07:02;21.08;;;13.50;;
75061;SDS011;63641;46.526;24.612;2023-04-03T04:09:29;22.55;;;14.70;;
75061;SDS011;63641;46.526;24.612;2023-04-03T04:11:56;21.60;;;13.85;;
75061;SDS011;63641;46.526;24.612;2023-04-03T04:14:23;23.67;;;13.70;;
75061;SDS011;63641;46.526;24.612;2023-04-03T04:16:49;25.70;;;14.70;;
75061;SDS011;63641;46.526;24.612;2023-04-03T04:19:16;18.05;;;12.80;;
75061;SDS011;63641;46.526;24.612;2023-04-03T04:21:43;20.90;;;14.25;;
75061;SDS011;63641;46.526;24.612;2023-04-03T04:24:10;20.00;;;13.15;;
75061;SDS011;63641;46.526;24.612;2023-04-03T04:26:37;23.25;;;15.60;;
75061;SDS011;63641;46.526;24.612;2023-04-03T04:29:04;20.05;;;14.60;;
75061;SDS011;63641;46.526;24.612;2023-04-03T04:31:31;20.70;;;14.30;;
75061;SDS011;63641;46.526;24.612;2023-04-03T04:33:58;21.65;;;13.73;;
75061;SDS011;63641;46.526;24.612;2023-04-03T04:36:25;24.02;;;15.15;;
75061;SDS011;63641;46.526;24.612;2023-04-03T04:38:52;22.15;;;16.00;;
75061;SDS011;63641;46.526;24.612;2023-04-03T04:41:20;23.25;;;15.88;;
75061;SDS011;63641;46.526;24.612;2023-04-03T04:43:49;26.95;;;17.08;;
75061;SDS011;63641;46.526;24.612;2023-04-03T04:46:15;23.15;;;16.88;;
75061;SDS011;63641;46.526;24.612;2023-04-03T04:48:43;23.33;;;15.65;;
75061;SDS011;63641;46.526;24.612;2023-04-03T04:51:11;11.80;;;9.25;;
75061;SDS011;63641;46.526;24.612;2023-04-03T04:53:37;10.68;;;9.55;;
75061;SDS011;63641;46.526;24.612;2023-04-03T04:56:04;11.70;;;9.98;;
75061;SDS011;63641;46.526;24.612;2023-04-03T04:58:32;11.13;;;9.88;;
75061;SDS011;63641;46.526;24.612;2023-04-03T05:01:02;13.10;;;9.50;;
75061;SDS011;63641;46.526;24.612;2023-04-03T05:03:30;18.98;;;9.20;;
75061;SDS011;63641;46.526;24.612;2023-04-03T05:05:58;10.05;;;8.40;;
75061;SDS011;63641;46.526;24.612;2023-04-03T05:08:25;7.05;;;6.35;;
75061;SDS011;63641;46.526;24.612;2023-04-03T05:10:52;6.85;;;6.13;;
75061;SDS011;63641;46.526;24.612;2023-04-03T05:13:21;5.88;;;5.30;;
75061;SDS011;63641;46.526;24.612;2023-04-03T05:15:48;5.53;;;5.03;;
75061;SDS011;63641;46.526;24.612;2023-04-03T05:18:15;5.28;;;4.68;;
75061;SDS011;63641;46.526;24.612;2023-04-03T05:20:41;5.65;;;5.10;;
75061;SDS011;63641;46.526;24.612;2023-04-03T05:23:10;5.90;;;4.70;;
75061;SDS011;63641;46.526;24.612;2023-04-03T05:25:38;5.82;;;5.05;;
75061;SDS011;63641;46.526;24.612;2023-04-03T05:28:06;6.57;;;5.30;;
75061;SDS011;63641;46.526;24.612;2023-04-03T05:30:33;4.93;;;4.43;;
75061;SDS011;63641;46.526;24.612;2023-04-03T05:32:59;5.35;;;4.85;;
75061;SDS011;63641;46.526;24.612;2023-04-03T05:35:26;5.43;;;4.85;;
75061;SDS011;63641;46.526;24.612;2023-04-03T05:37:53;5.45;;;4.95;;
75061;SDS011;63641;46.526;24.612;2023-04-03T05:40:20;6.38;;;5.75;;
75061;SDS011;63641;46.526;24.612;2023-04-03T05:42:47;5.43;;;4.93;;
75061;SDS011;63641;46.526;24.612;2023-04-03T05:45:14;5.40;;;4.90;;
75061;SDS011;63641;46.526;24.612;2023-04-03T05:47:41;5.32;;;4.82;;
75061;SDS011;63641;46.526;24.612;2023-04-03T05:50:08;5.97;;;5.13;;
75061;SDS011;63641;46.526;24.612;2023-04-03T05:52:36;5.53;;;5.00;;
75061;SDS011;63641;46.526;24.612;2023-04-03T05:55:06;5.07;;;4.57;;
75061;SDS011;63641;46.526;24.612;2023-04-03T05:57:33;6.35;;;4.85;;
75061;SDS011;63641;46.526;24.612;2023-04-03T06:00:00;6.97;;;5.40;;
75061;SDS011;63641;46.526;24.612;2023-04-03T06:02:27;6.80;;;5.32;;
75061;SDS011;63641;46.526;24.612;2023-04-03T06:04:54;7.07;;;5.50;;
75061;SDS011;63641;46.526;24.612;2023-04-03T06:07:22;7.55;;;6.40;;
75061;SDS011;63641;46.526;24.612;2023-04-03T06:09:50;6.20;;;5.60;;
75061;SDS011;63641;46.526;24.612;2023-04-03T06:12:20;6.03;;;5.40;;
75061;SDS011;63641;46.526;24.612;2023-04-03T06:14:47;6.05;;;5.45;;
75061;SDS011;63641;46.526;24.612;2023-04-03T06:17:15;6.30;;;5.70;;
75061;SDS011;63641;46.526;24.612;2023-04-03T06:19:44;6.00;;;5.40;;
75061;SDS011;63641;46.526;24.612;2023-04-03T06:22:11;6.30;;;5.22;;
75061;SDS011;63641;46.526;24.612;2023-04-03T06:24:39;7.80;;;5.53;;
75061;SDS011;63641;46.526;24.612;2023-04-03T06:27:06;6.30;;;5.45;;
75061;SDS011;63641;46.526;24.612;2023-04-03T06:29:33;6.63;;;5.93;;
75061;SDS011;63641;46.526;24.612;2023-04-03T06:32:00;7.35;;;5.80;;
75061;SDS011;63641;46.526;24.612;2023-04-03T06:34:26;6.88;;;5.40;;
75061;SDS011;63641;46.526;24.612;2023-04-03T06:36:53;6.43;;;5.65;;
75061;SDS011;63641;46.526;24.612;2023-04-03T06:39:20;6.57;;;5.90;;
75061;SDS011;63641;46.526;24.612;2023-04-03T06:41:51;6.32;;;5.50;;
75061;SDS011;63641;46.526;24.612;2023-04-03T06:44:18;6.82;;;6.13;;
75061;SDS011;63641;46.526;24.612;2023-04-03T06:46:45;6.88;;;5.93;;
75061;SDS011;63641;46.526;24.612;2023-04-03T06:49:12;6.68;;;5.97;;
75061;SDS011;63641;46.526;24.612;2023-04-03T06:51:40;7.15;;;6.28;;
75061;SDS011;63641;46.526;24.612;2023-04-03T06:54:07;6.25;;;5.63;;
75061;SDS011;63641;46.526;24.612;2023-04-03T06:56:34;5.97;;;5.38;;
75061;SDS011;63641;46.526;24.612;2023-04-03T06:59:02;6.03;;;5.43;;
75061;SDS011;63641;46.526;24.612;2023-04-03T07:01:29;6.43;;;5.82;;
75061;SDS011;63641;46.526;24.612;2023-04-03T07:03:56;5.90;;;5.38;;
75061;SDS011;63641;46.526;24.612;2023-04-03T07:06:23;5.72;;;5.13;;
75061;SDS011;63641;46.526;24.612;2023-04-03T07:08:53;6.00;;;5.35;;
75061;SDS011;63641;46.526;24.612;2023-04-03T07:11:21;6.25;;;5.35;;
75061;SDS011;63641;46.526;24.612;2023-04-03T07:13:48;6.75;;;6.05;;
75061;SDS011;63641;46.526;24.612;2023-04-03T07:16:16;7.00;;;5.93;;
75061;SDS011;63641;46.526;24.612;2023-04-03T07:18:43;8.07;;;7.18;;
75061;SDS011;63641;46.526;24.612;2023-04-03T07:21:11;9.00;;;6.68;;
75061;SDS011;63641;46.526;24.612;2023-04-03T07:23:38;8.82;;;6.88;;
75061;SDS011;63641;46.526;24.612;2023-04-03T07:26:05;7.07;;;6.00;;
75061;SDS011;63641;46.526;24.612;2023-04-03T07:28:32;9.05;;;6.95;;
75061;SDS011;63641;46.526;24.612;2023-04-03T07:31:03;17.10;;;15.38;;
75061;SDS011;63641;46.526;24.612;2023-04-03T07:33:34;20.98;;;14.57;;
75061;SDS011;63641;46.526;24.612;2023-04-03T07:36:02;13.55;;;12.23;;
75061;SDS011;63641;46.526;24.612;2023-04-03T07:38:29;10.30;;;9.20;;
75061;SDS011;63641;46.526;24.612;2023-04-03T07:40:56;10.15;;;8.90;;
75061;SDS011;63641;46.526;24.612;2023-04-03T07:43:23;9.88;;;7.75;;
75061;SDS011;63641;46.526;24.612;2023-04-03T07:45:51;7.65;;;6.82;;
75061;SDS011;63641;46.526;24.612;2023-04-03T07:48:19;7.38;;;6.47;;
75061;SDS011;63641;46.526;24.612;2023-04-03T07:50:47;6.47;;;5.88;;
75061;SDS011;63641;46.526;24.612;2023-04-03T07:53:14;7.38;;;6.60;;
75061;SDS011;63641;46.526;24.612;2023-04-03T07:55:42;7.32;;;6.00;;
75061;SDS011;63641;46.526;24.612;2023-04-03T07:58:13;6.05;;;5.38;;
75061;SDS011;63641;46.526;24.612;2023-04-03T08:00:41;6.85;;;5.85;;
75061;SDS011;63641;46.526;24.612;2023-04-03T08:03:10;6.45;;;5.72;;
75061;SDS011;63641;46.526;24.612;2023-04-03T08:05:38;5.72;;;5.22;;
75061;SDS011;63641;46.526;24.612;2023-04-03T08:08:07;6.05;;;5.35;;
75061;SDS011;63641;46.526;24.612;2023-04-03T08:10:35;6.20;;;5.18;;
75061;SDS011;63641;46.526;24.612;2023-04-03T08:13:02;5.97;;;5.38;;
75061;SDS011;63641;46.526;24.612;2023-04-03T08:15:30;7.57;;;5.38;;
75061;SDS011;63641;46.526;24.612;2023-04-03T08:17:58;6.35;;;5.70;;
75061;SDS011;63641;46.526;24.612;2023-04-03T08:20:27;5.85;;;5.30;;
75061;SDS011;63641;46.526;24.612;2023-04-03T08:22:54;6.18;;;5.57;;
75061;SDS011;63641;46.526;24.612;2023-04-03T08:25:21;5.88;;;5.13;;
75061;SDS011;63641;46.526;24.612;2023-04-03T08:27:48;6.43;;;5.63;;
75061;SDS011;63641;46.526;24.612;2023-04-03T08:30:15;6.03;;;5.20;;
75061;SDS011;63641;46.526;24.612;2023-04-03T08:32:42;5.65;;;5.10;;
75061;SDS011;63641;46.526;24.612;2023-04-03T08:35:10;6.50;;;5.80;;
75061;SDS011;63641;46.526;24.612;2023-04-03T08:37:38;6.20;;;5.60;;
75061;SDS011;63641;46.526;24.612;2023-04-03T08:40:07;6.82;;;5.88;;
75061;SDS011;63641;46.526;24.612;2023-04-03T08:42:41;5.82;;;5.22;;
75061;SDS011;63641;46.526;24.612;2023-04-03T08:45:15;9.00;;;6.03;;
75061;SDS011;63641;46.526;24.612;2023-04-03T08:47:51;9.48;;;5.50;;
75061;SDS011;63641;46.526;24.612;2023-04-03T08:50:34;6.93;;;5.00;;
75061;SDS011;63641;46.526;24.612;2023-04-03T08:53:06;5.20;;;4.70;;
75061;SDS011;63641;46.526;24.612;2023-04-03T08:55:43;5.63;;;5.10;;
75061;SDS011;63641;46.526;24.612;2023-04-03T08:58:17;8.18;;;5.22;;
75061;SDS011;63641;46.526;24.612;2023-04-03T09:00:57;5.72;;;5.20;;
75061;SDS011;63641;46.526;24.612;2023-04-03T09:03:32;5.55;;;5.05;;
75061;SDS011;63641;46.526;24.612;2023-04-03T09:06:05;6.47;;;4.90;;
75061;SDS011;63641;46.526;24.612;2023-04-03T09:12:00;6.18;;;5.07;;
75061;SDS011;63641;46.526;24.612;2023-04-03T09:22:45;5.68;;;5.18;;
75061;SDS011;63641;46.526;24.612;2023-04-03T09:27:48;5.90;;;5.30;;
75061;SDS011;63641;46.526;24.612;2023-04-03T09:30:18;6.05;;;5.45;;
75061;SDS011;63641;46.526;24.612;2023-04-03T09:32:51;6.22;;;5.65;;
75061;SDS011;63641;46.526;24.612;2023-04-03T09:35:27;6.72;;;6.03;;
75061;SDS011;63641;46.526;24.612;2023-04-03T09:38:15;7.72;;;7.00;;
75061;SDS011;63641;46.526;24.612;2023-04-03T09:40:44;8.20;;;7.32;;
75061;SDS011;63641;46.526;24.612;2023-04-03T09:43:26;8.20;;;7.35;;
75061;SDS011;63641;46.526;24.612;2023-04-03T09:45:56;7.32;;;6.63;;
75061;SDS011;63641;46.526;24.612;2023-04-03T09:48:52;7.13;;;6.43;;
75061;SDS011;63641;46.526;24.612;2023-04-03T09:51:33;6.75;;;6.15;;
75061;SDS011;63641;46.526;24.612;2023-04-03T09:54:01;6.68;;;6.07;;
75061;SDS011;63641;46.526;24.612;2023-04-03T09:56:56;7.20;;;6.50;;
75061;SDS011;63641;46.526;24.612;2023-04-03T09:59:28;6.00;;;5.38;;
75061;SDS011;63641;46.526;24.612;2023-04-03T10:01:58;6.43;;;5.82;;
75061;SDS011;63641;46.526;24.612;2023-04-03T10:04:37;6.28;;;5.72;;
75061;SDS011;63641;46.526;24.612;2023-04-03T10:07:28;7.03;;;6.32;;
75061;SDS011;63641;46.526;24.612;2023-04-03T10:10:15;6.22;;;5.63;;
75061;SDS011;63641;46.526;24.612;2023-04-03T10:12:46;6.68;;;5.97;;
75061;SDS011;63641;46.526;24.612;2023-04-03T10:15:15;6.05;;;5.20;;
75061;SDS011;63641;46.526;24.612;2023-04-03T10:18:00;6.85;;;6.15;;
75061;SDS011;63641;46.526;24.612;2023-04-03T10:20:47;6.90;;;5.80;;
75061;SDS011;63641;46.526;24.612;2023-04-03T10:23:51;7.03;;;6.13;;
75061;SDS011;63641;46.526;24.612;2023-04-03T10:46:10;6.35;;;4.93;;
75061;SDS011;63641;46.526;24.612;2023-04-03T10:54:26;5.82;;;5.22;;
75061;SDS011;63641;46.526;24.612;2023-04-03T10:57:03;5.05;;;4.53;;
75061;SDS011;63641;46.526;24.612;2023-04-03T10:59:40;4.90;;;4.40;;
75061;SDS011;63641;46.526;24.612;2023-04-03T11:04:38;4.60;;;4.20;;
75061;SDS011;63641;46.526;24.612;2023-04-03T11:07:17;4.97;;;4.47;;
75061;SDS011;63641;46.526;24.612;2023-04-03T11:09:52;4.85;;;4.35;;
75061;SDS011;63641;46.526;24.612;2023-04-03T11:12:28;5.38;;;4.70;;
75061;SDS011;63641;46.526;24.612;2023-04-03T11:15:04;4.57;;;4.18;;
75061;SDS011;63641;46.526;24.612;2023-04-03T11:17:39;5.20;;;3.67;;
75061;SDS011;63641;46.526;24.612;2023-04-03T11:20:20;4.20;;;3.80;;
75061;SDS011;63641;46.526;24.612;2023-04-03T11:23:00;4.55;;;3.88;;
75061;SDS011;63641;46.526;24.612;2023-04-03T11:26:11;3.80;;;3.40;;
75061;SDS011;63641;46.526;24.612;2023-04-03T11:28:40;4.40;;;4.00;;
75061;SDS011;63641;46.526;24.612;2023-04-03T11:34:46;4.87;;;4.27;;
75061;SDS011;63641;46.526;24.612;2023-04-03T11:37:33;3.78;;;3.38;;
75061;SDS011;63641;46.526;24.612;2023-04-03T11:40:07;5.22;;;3.92;;
75061;SDS011;63641;46.526;24.612;2023-04-03T11:42:48;4.88;;;3.55;;
75061;SDS011;63641;46.526;24.612;2023-04-03T11:47:51;3.75;;;3.25;;
75061;SDS011;63641;46.526;24.612;2023-04-03T11:58:13;3.67;;;3.00;;
75061;SDS011;63641;46.526;24.612;2023-04-03T12:00:54;3.20;;;2.88;;
75061;SDS011;63641;46.526;24.612;2023-04-03T12:13:41;3.03;;;2.73;;
75061;SDS011;63641;46.526;24.612;2023-04-03T12:16:27;3.40;;;2.70;;
75061;SDS011;63641;46.526;24.612;2023-04-03T12:29:27;2.83;;;2.60;;
75061;SDS011;63641;46.526;24.612;2023-04-03T12:43:18;3.92;;;2.90;;
75061;SDS011;63641;46.526;24.612;2023-04-03T12:48:37;3.20;;;2.70;;
75061;SDS011;63641;46.526;24.612;2023-04-03T12:51:18;2.70;;;2.50;;
75061;SDS011;63641;46.526;24.612;2023-04-03T12:53:56;2.40;;;2.20;;
75061;SDS011;63641;46.526;24.612;2023-04-03T12:59:15;3.28;;;2.22;;
75061;SDS011;63641;46.526;24.612;2023-04-03T13:01:57;2.67;;;2.47;;
75061;SDS011;63641;46.526;24.612;2023-04-03T13:04:26;3.20;;;2.90;;
75061;SDS011;63641;46.526;24.612;2023-04-03T13:06:54;2.33;;;2.13;;
75061;SDS011;63641;46.526;24.612;2023-04-03T13:09:22;2.50;;;2.30;;
75061;SDS011;63641;46.526;24.612;2023-04-03T13:12:07;1.98;;;1.88;;
75061;SDS011;63641;46.526;24.612;2023-04-03T13:14:37;2.40;;;2.20;;
75061;SDS011;63641;46.526;24.612;2023-04-03T13:19:30;1.80;;;1.70;;
75061;SDS011;63641;46.526;24.612;2023-04-03T13:22:08;2.28;;;2.17;;
75061;SDS011;63641;46.526;24.612;2023-04-03T13:24:46;2.47;;;2.28;;
75061;SDS011;63641;46.526;24.612;2023-04-03T13:27:16;2.40;;;2.20;;
75061;SDS011;63641;46.526;24.612;2023-04-03T13:29:43;2.40;;;2.20;;
75061;SDS011;63641;46.526;24.612;2023-04-03T13:32:22;2.65;;;2.45;;
75061;SDS011;63641;46.526;24.612;2023-04-03T13:34:51;2.92;;;2.63;;
75061;SDS011;63641;46.526;24.612;2023-04-03T13:42:35;2.88;;;2.67;;
75061;SDS011;63641;46.526;24.612;2023-04-03T13:47:52;2.55;;;2.25;;
75061;SDS011;63641;46.526;24.612;2023-04-03T13:53:48;2.50;;;2.30;;
75061;SDS011;63641;46.526;24.612;2023-04-03T14:01:56;2.30;;;2.10;;
75061;SDS011;63641;46.526;24.612;2023-04-03T14:07:15;2.65;;;2.45;;
75061;SDS011;63641;46.526;24.612;2023-04-03T14:09:44;2.80;;;2.50;;
75061;SDS011;63641;46.526;24.612;2023-04-03T14:12:15;2.40;;;2.20;;
75061;SDS011;63641;46.526;24.612;2023-04-03T14:15:04;2.58;;;2.38;;
75061;SDS011;63641;46.526;24.612;2023-04-03T14:17:38;2.80;;;2.60;;
75061;SDS011;63641;46.526;24.612;2023-04-03T14:20:06;2.88;;;2.53;;
75061;SDS011;63641;46.526;24.612;2023-04-03T14:22:34;3.42;;;2.33;;
75061;SDS011;63641;46.526;24.612;2023-04-03T14:25:01;2.75;;;2.53;;
75061;SDS011;63641;46.526;24.612;2023-04-03T14:27:33;3.72;;;2.70;;
75061;SDS011;63641;46.526;24.612;2023-04-03T14:30:02;2.95;;;2.70;;
75061;SDS011;63641;46.526;24.612;2023-04-03T14:32:30;4.18;;;2.75;;
75061;SDS011;63641;46.526;24.612;2023-04-03T14:34:57;3.20;;;2.90;;
75061;SDS011;63641;46.526;24.612;2023-04-03T14:37:25;2.95;;;2.60;;
75061;SDS011;63641;46.526;24.612;2023-04-03T14:39:56;2.83;;;2.55;;
75061;SDS011;63641;46.526;24.612;2023-04-03T14:42:26;2.63;;;2.42;;
75061;SDS011;63641;46.526;24.612;2023-04-03T14:44:57;2.92;;;2.67;;
75061;SDS011;63641;46.526;24.612;2023-04-03T14:47:26;2.97;;;2.70;;
75061;SDS011;63641;46.526;24.612;2023-04-03T14:50:01;2.80;;;2.53;;
75061;SDS011;63641;46.526;24.612;2023-04-03T14:52:31;4.82;;;3.67;;
75061;SDS011;63641;46.526;24.612;2023-04-03T14:54:59;4.43;;;3.35;;
75061;SDS011;63641;46.526;24.612;2023-04-03T14:57:27;4.07;;;3.67;;
75061;SDS011;63641;46.526;24.612;2023-04-03T14:59:56;4.00;;;3.60;;
75061;SDS011;63641;46.526;24.612;2023-04-03T15:02:35;4.50;;;4.10;;
75061;SDS011;63641;46.526;24.612;2023-04-03T15:05:05;4.15;;;3.60;;
75061;SDS011;63641;46.526;24.612;2023-04-03T15:07:44;4.22;;;3.38;;
75061;SDS011;63641;46.526;24.612;2023-04-03T15:12:47;3.80;;;3.33;;
75061;SDS011;63641;46.526;24.612;2023-04-03T15:15:14;4.95;;;3.50;;
75061;SDS011;63641;46.526;24.612;2023-04-03T15:17:42;3.70;;;3.40;;
75061;SDS011;63641;46.526;24.612;2023-04-03T15:20:14;4.80;;;3.00;;
75061;SDS011;63641;46.526;24.612;2023-04-03T15:22:43;3.72;;;3.42;;
75061;SDS011;63641;46.526;24.612;2023-04-03T15:25:10;4.25;;;2.92;;
75061;SDS011;63641;46.526;24.612;2023-04-03T15:27:38;4.88;;;3.53;;
75061;SDS011;63641;46.526;24.612;2023-04-03T15:30:06;4.03;;;3.50;;
75061;SDS011;63641;46.526;24.612;2023-04-03T15:32:34;3.88;;;3.47;;
75061;SDS011;63641;46.526;24.612;2023-04-03T15:35:01;3.67;;;3.38;;
75061;SDS011;63641;46.526;24.612;2023-04-03T15:37:29;3.88;;;3.50;;
75061;SDS011;63641;46.526;24.612;2023-04-03T15:39:56;3.70;;;3.30;;
75061;SDS011;63641;46.526;24.612;2023-04-03T15:42:22;4.10;;;3.45;;
75061;SDS011;63641;46.526;24.612;2023-04-03T15:44:49;3.80;;;3.30;;
75061;SDS011;63641;46.526;24.612;2023-04-03T15:47:16;4.28;;;3.80;;
75061;SDS011;63641;46.526;24.612;2023-04-03T15:49:43;4.00;;;3.60;;
75061;SDS011;63641;46.526;24.612;2023-04-03T15:52:10;3.67;;;3.20;;
75061;SDS011;63641;46.526;24.612;2023-04-03T15:54:36;3.47;;;3.17;;
75061;SDS011;63641;46.526;24.612;2023-04-03T15:57:03;3.78;;;3.40;;
75061;SDS011;63641;46.526;24.612;2023-04-03T15:59:30;3.50;;;3.20;;
75061;SDS011;63641;46.526;24.612;2023-04-03T16:01:58;4.07;;;3.15;;
75061;SDS011;63641;46.526;24.612;2023-04-03T16:04:27;3.72;;;3.38;;
75061;SDS011;63641;46.526;24.612;2023-04-03T16:06:55;3.67;;;3.38;;
75061;SDS011;63641;46.526;24.612;2023-04-03T16:09:22;3.17;;;2.88;;
75061;SDS011;63641;46.526;24.612;2023-04-03T16:11:48;3.50;;;3.20;;
75061;SDS011;63641;46.526;24.612;2023-04-03T16:14:15;3.20;;;2.90;;
75061;SDS011;63641;46.526;24.612;2023-04-03T16:16:42;3.55;;;3.10;;
75061;SDS011;63641;46.526;24.612;2023-04-03T16:19:09;3.60;;;3.30;;
75061;SDS011;63641;46.526;24.612;2023-04-03T16:21:36;3.90;;;3.20;;
75061;SDS011;63641;46.526;24.612;2023-04-03T16:24:03;3.03;;;2.72;;
75061;SDS011;63641;46.526;24.612;2023-04-03T16:26:31;3.58;;;3.25;;
75061;SDS011;63641;46.526;24.612;2023-04-03T16:28:58;3.75;;;3.40;;
75061;SDS011;63641;46.526;24.612;2023-04-03T16:31:24;3.90;;;3.60;;
75061;SDS011;63641;46.526;24.612;2023-04-03T16:33:52;3.70;;;3.22;;
75061;SDS011;63641;46.526;24.612;2023-04-03T16:36:19;4.68;;;3.08;;
75061;SDS011;63641;46.526;24.612;2023-04-03T16:38:46;10.35;;;4.30;;
75061;SDS011;63641;46.526;24.612;2023-04-03T16:41:12;3.90;;;3.50;;
75061;SDS011;63641;46.526;24.612;2023-04-03T16:43:39;3.70;;;3.25;;
75061;SDS011;63641;46.526;24.612;2023-04-03T16:46:06;3.30;;;3.00;;
75061;SDS011;63641;46.526;24.612;2023-04-03T16:48:33;3.40;;;3.10;;